Time;durP1;ratioP1;P1;durP2;ratioP2;P2;SDS_P1;SDS_P2;PMS_P1;PMS_P2;Temp;Humidity;BMP_temperature;BMP_pressure;BME280_temperature;BME280_humidity;BME280_pressure;Samples;Min_cycle;Max_cycle;Signal;HPM_P1;HPM_P2
2020/12/02 00:00:06;;;;;;;;;;;1.00;76.50;;;;;;5006757;28;83531;-75
2020/12/02 00:02:49;;;;;;;106.70;55.57;;;1.00;77.20;;;;;;5003335;28;83428;-76
2020/12/02 00:05:17;;;;;;;116.43;60.43;;;0.90;77.60;;;;;;5003888;28;86884;-76
2020/12/02 00:07:46;;;;;;;112.83;56.47;;;0.90;77.50;;;;;;5004864;28;84103;-76
2020/12/02 00:10:12;;;;;;;110.47;58.63;;;0.90;77.00;;;;;;5005142;28;83232;-75
2020/12/02 00:12:38;;;;;;;110.90;58.27;;;0.90;76.70;;;;;;5004622;28;83508;-75
2020/12/02 00:15:08;;;;;;;105.50;57.10;;;0.90;77.00;;;;;;5006565;28;84449;-76
2020/12/02 00:17:34;;;;;;;107.77;57.43;;;0.90;76.70;;;;;;5004974;28;83844;-75
2020/12/02 00:20:00;;;;;;;117.90;62.20;;;0.90;77.00;;;;;;5005756;28;83663;-75
2020/12/02 00:22:26;;;;;;;117.33;59.20;;;0.90;76.80;;;;;;5006394;28;83504;-76
2020/12/02 00:24:52;;;;;;;115.43;60.10;;;0.90;77.10;;;;;;5022888;28;87920;-76
2020/12/02 00:27:30;;;;;;;114.50;59.20;;;0.80;76.70;;;;;;5006953;28;87812;-76
2020/12/02 00:29:56;;;;;;;109.37;56.43;;;0.90;76.70;;;;;;5010696;28;83470;-76
2020/12/02 00:32:32;;;;;;;111.37;59.30;;;0.90;76.50;;;;;;5025862;28;86899;-76
2020/12/02 00:34:59;;;;;;;111.10;57.70;;;0.90;76.20;;;;;;5001898;28;85063;-76
2020/12/02 00:37:26;;;;;;;110.17;59.20;;;0.90;76.60;;;;;;5003103;28;83757;-76
2020/12/02 00:39:53;;;;;;;112.73;60.33;;;0.80;76.70;;;;;;5001779;28;88167;-76
2020/12/02 00:42:20;;;;;;;110.40;57.47;;;0.80;76.50;;;;;;4985384;28;83462;-76
2020/12/02 00:44:47;;;;;;;106.67;57.60;;;0.80;76.50;;;;;;5001088;28;85134;-76
2020/12/02 00:47:21;;;;;;;111.77;59.00;;;0.80;76.50;;;;;;5018402;28;87087;-75
2020/12/02 00:49:49;;;;;;;112.93;57.67;;;0.80;76.40;;;;;;5001012;28;87015;-76
2020/12/02 00:52:15;;;;;;;106.97;56.60;;;0.80;76.00;;;;;;5018246;28;86655;-76
2020/12/02 00:54:42;;;;;;;108.87;57.90;;;0.80;75.90;;;;;;5001058;28;84198;-76
2020/12/02 00:57:22;;;;;;;105.50;55.97;;;0.80;76.00;;;;;;5003130;28;84506;-76
2020/12/02 00:59:56;;;;;;;99.50;54.70;;;0.80;76.20;;;;;;5017335;28;86907;-76
2020/12/02 01:02:45;;;;;;;103.63;57.63;;;0.80;76.10;;;;;;5001570;28;85530;-75
2020/12/02 01:05:16;;;;;;;100.43;53.70;;;0.80;76.10;;;;;;5001506;28;86888;-75
2020/12/02 01:07:43;;;;;;;106.07;52.97;;;0.80;76.20;;;;;;5000604;28;87594;-76
2020/12/02 01:10:11;;;;;;;107.33;57.03;;;0.70;75.70;;;;;;5017616;28;87368;-75
2020/12/02 01:12:45;;;;;;;102.87;56.47;;;0.80;75.90;;;;;;5017427;28;86373;-75
2020/12/02 01:15:16;;;;;;;108.70;58.13;;;0.80;75.80;;;;;;5002805;28;84467;-76
2020/12/02 01:17:42;;;;;;;105.53;58.07;;;0.70;75.50;;;;;;5001008;28;84213;-75
2020/12/02 01:20:10;;;;;;;113.57;56.20;;;0.70;75.60;;;;;;4984714;28;86042;-75
2020/12/02 01:22:42;;;;;;;101.33;56.43;;;0.60;75.80;;;;;;5002184;28;83465;-75
2020/12/02 01:25:24;;;;;;;98.30;53.60;;;0.70;75.80;;;;;;5018102;28;86018;-76
2020/12/02 01:28:05;;;;;;;102.00;55.05;;;0.60;75.80;;;;;;5001951;28;86675;-76
2020/12/02 01:30:32;;;;;;;102.10;55.07;;;0.60;75.80;;;;;;5001687;28;83486;-76
2020/12/02 01:32:59;;;;;;;108.90;56.70;;;0.70;75.80;;;;;;5002195;28;84560;-76
2020/12/02 01:35:28;;;;;;;104.87;55.50;;;0.70;75.70;;;;;;5017700;28;87238;-76
2020/12/02 01:38:01;;;;;;;108.43;55.77;;;0.70;75.80;;;;;;5002687;28;84819;-76
2020/12/02 01:40:35;;;;;;;105.27;56.50;;;0.60;75.80;;;;;;5016426;28;86563;-75
2020/12/02 01:43:09;;;;;;;105.63;55.13;;;0.60;75.90;;;;;;5001498;28;86829;-76
2020/12/02 01:45:41;;;;;;;100.07;56.33;;;0.60;76.20;;;;;;5016720;28;88203;-76
2020/12/02 01:48:15;;;;;;;107.75;55.85;;;0.50;76.40;;;;;;5001429;28;83863;-75
2020/12/02 01:50:54;;;;;;;101.17;55.77;;;0.50;75.90;;;;;;5000280;28;87813;-75
2020/12/02 01:53:38;;;;;;;99.10;54.90;;;0.50;75.60;;;;;;5002675;28;83890;-75
2020/12/02 01:56:29;;;;;;;102.77;55.00;;;0.50;75.90;;;;;;5000422;28;89298;-76
2020/12/02 01:59:17;;;;;;;110.87;57.27;;;0.50;75.50;;;;;;5000303;28;87134;-75
2020/12/02 02:01:48;;;;;;;103.83;54.50;;;0.50;75.50;;;;;;5000509;28;85776;-76
2020/12/02 02:04:19;;;;;;;102.90;55.17;;;0.50;75.70;;;;;;5001321;28;85407;-75
2020/12/02 02:07:05;;;;;;;106.83;56.70;;;0.50;75.50;;;;;;5017387;28;85655;-75
2020/12/02 02:09:32;;;;;;;105.93;56.40;;;0.40;75.70;;;;;;4999505;28;88912;-76
2020/12/02 02:12:31;;;;;;;101.93;53.53;;;0.40;76.10;;;;;;5001055;28;87364;-76
2020/12/02 02:15:26;;;;;;;110.30;57.57;;;0.40;76.40;;;;;;5000465;28;85567;-75
2020/12/02 02:18:28;;;;;;;111.00;57.43;;;0.30;76.10;;;;;;4984046;28;86409;-76
2020/12/02 02:21:01;;;;;;;107.77;56.20;;;0.30;76.70;;;;;;4984444;28;88765;-76
2020/12/02 02:23:27;;;;;;;101.87;56.30;;;0.30;76.40;;;;;;5018067;28;87460;-75
2020/12/02 02:26:06;;;;;;;104.57;55.60;;;0.30;76.10;;;;;;5001178;28;82967;-76
2020/12/02 02:28:36;;;;;;;102.73;56.70;;;0.20;76.30;;;;;;5000752;28;85280;-76
2020/12/02 02:31:05;;;;;;;111.30;57.40;;;0.20;75.90;;;;;;5002591;28;83670;-75
2020/12/02 02:33:31;;;;;;;106.63;59.47;;;0.20;76.00;;;;;;5000498;28;84448;-75
2020/12/02 02:35:57;;;;;;;107.20;56.07;;;0.20;76.80;;;;;;5017756;28;86354;-76
2020/12/02 02:38:23;;;;;;;104.93;55.23;;;0.10;77.10;;;;;;5001276;28;85810;-76
2020/12/02 02:40:49;;;;;;;108.80;55.70;;;0.10;76.70;;;;;;5000269;28;87819;-75
2020/12/02 02:43:16;;;;;;;102.23;55.13;;;0.10;76.10;;;;;;5001155;28;83998;-75
2020/12/02 02:45:41;;;;;;;97.27;53.17;;;0.10;76.00;;;;;;5000418;28;85757;-75
2020/12/02 02:48:07;;;;;;;107.43;56.63;;;0.10;76.00;;;;;;5002919;28;84444;-76
2020/12/02 02:50:36;;;;;;;98.00;52.87;;;0.20;75.80;;;;;;5001522;28;84054;-75
2020/12/02 02:53:13;;;;;;;98.90;53.10;;;0.20;75.60;;;;;;5001813;28;83162;-76
2020/12/02 02:55:39;;;;;;;102.40;53.33;;;0.10;75.90;;;;;;4984664;28;86882;-75
2020/12/02 02:58:05;;;;;;;102.90;55.80;;;0.20;77.00;;;;;;5001288;28;88058;-75
2020/12/02 03:00:33;;;;;;;103.03;54.13;;;0.10;77.60;;;;;;5000941;28;83206;-76
2020/12/02 03:03:00;;;;;;;94.67;50.90;;;0.10;77.90;;;;;;5002504;28;83637;-75
2020/12/02 03:05:27;;;;;;;96.87;54.10;;;0.00;78.20;;;;;;5000964;28;87092;-75
2020/12/02 03:08:03;;;;;;;100.03;55.00;;;0.00;78.20;;;;;;4984822;28;88159;-76
2020/12/02 03:10:32;;;;;;;104.30;55.33;;;0.00;78.50;;;;;;5021628;28;87736;-75
2020/12/02 03:13:04;;;;;;;98.10;55.80;;;0.00;77.60;;;;;;5021709;28;86027;-76
2020/12/02 03:15:32;;;;;;;101.73;53.67;;;0.00;77.20;;;;;;4988505;28;86709;-76
2020/12/02 03:17:59;;;;;;;94.93;53.13;;;0.00;76.40;;;;;;5020748;28;88465;-76
2020/12/02 03:20:32;;;;;;;103.00;55.13;;;0.00;77.00;;;;;;5005078;28;87107;-76
2020/12/02 03:22:58;;;;;;;97.27;52.23;;;0.00;77.10;;;;;;5005374;28;83942;-76
2020/12/02 03:25:29;;;;;;;102.43;53.37;;;-0.10;77.70;;;;;;4988604;28;86733;-76
2020/12/02 03:27:55;;;;;;;103.77;56.23;;;0.00;77.40;;;;;;5004365;28;86494;-75
2020/12/02 03:30:21;;;;;;;94.87;52.60;;;0.00;76.20;;;;;;5005470;28;87692;-76
2020/12/02 03:32:47;;;;;;;97.23;53.67;;;0.00;76.50;;;;;;5004555;28;84429;-76
2020/12/02 03:35:13;;;;;;;101.63;52.93;;;0.00;76.90;;;;;;5022346;28;86989;-76
2020/12/02 03:37:39;;;;;;;106.77;54.90;;;0.00;77.70;;;;;;5004784;28;86045;-75
2020/12/02 03:40:07;;;;;;;100.20;52.40;;;0.00;78.00;;;;;;5005515;28;87212;-76
2020/12/02 03:42:51;;;;;;;98.83;52.47;;;0.00;78.10;;;;;;5006314;28;84057;-76
2020/12/02 03:45:18;;;;;;;95.63;51.60;;;0.00;77.10;;;;;;5023072;28;86039;-76
2020/12/02 03:47:44;;;;;;;94.80;52.43;;;0.00;77.40;;;;;;5005459;28;83829;-75
2020/12/02 03:50:10;;;;;;;91.73;49.27;;;0.00;77.20;;;;;;5006329;28;87082;-76
2020/12/02 03:52:37;;;;;;;97.97;52.73;;;0.00;77.10;;;;;;5006431;28;87675;-76
2020/12/02 03:55:05;;;;;;;95.80;50.47;;;-0.10;77.90;;;;;;5008765;28;87300;-76
2020/12/02 03:57:31;;;;;;;93.67;51.50;;;-0.10;78.30;;;;;;5005653;28;83140;-76
2020/12/02 03:59:57;;;;;;;104.57;53.03;;;-0.10;78.00;;;;;;5003460;28;84031;-75
2020/12/02 04:02:22;;;;;;;90.50;50.87;;;-0.10;77.80;;;;;;5002852;28;84000;-76
2020/12/02 04:04:48;;;;;;;93.67;51.07;;;-0.10;77.60;;;;;;5002147;28;84335;-75
2020/12/02 04:07:15;;;;;;;96.17;50.97;;;0.00;77.40;;;;;;5002269;28;86911;-76
2020/12/02 04:09:41;;;;;;;101.77;51.93;;;0.00;77.10;;;;;;5001622;28;87206;-75
2020/12/02 04:12:07;;;;;;;98.53;50.23;;;0.00;77.00;;;;;;5002626;28;83841;-76
2020/12/02 04:14:33;;;;;;;92.57;49.57;;;0.00;77.10;;;;;;5001951;28;83509;-75
2020/12/02 04:16:59;;;;;;;93.73;50.60;;;-0.10;78.10;;;;;;5001489;28;88904;-76
2020/12/02 04:19:25;;;;;;;94.87;50.67;;;-0.10;78.60;;;;;;5001772;28;87311;-76
2020/12/02 04:21:54;;;;;;;86.83;49.40;;;-0.10;78.70;;;;;;5018200;28;87191;-75
2020/12/02 04:24:21;;;;;;;87.30;47.53;;;-0.10;78.70;;;;;;5002089;28;87249;-75
2020/12/02 04:26:46;;;;;;;95.50;52.50;;;-0.10;78.30;;;;;;5001591;28;84396;-75
2020/12/02 04:29:12;;;;;;;93.73;51.97;;;-0.10;77.90;;;;;;5001866;28;83157;-75
2020/12/02 04:31:38;;;;;;;95.80;53.07;;;-0.10;77.60;;;;;;5002982;28;83109;-76
2020/12/02 04:34:04;;;;;;;91.93;49.37;;;-0.10;77.50;;;;;;5018596;28;87069;-76
2020/12/02 04:36:30;;;;;;;94.00;49.50;;;-0.10;77.70;;;;;;4985335;28;87668;-76
2020/12/02 04:38:56;;;;;;;97.57;50.77;;;-0.20;77.90;;;;;;5001454;28;84483;-76
2020/12/02 04:41:21;;;;;;;94.97;51.67;;;-0.20;78.20;;;;;;5002018;28;87266;-75
2020/12/02 04:43:52;;;;;;;93.73;49.37;;;-0.30;78.70;;;;;;4984303;28;86501;-76
2020/12/02 04:46:24;;;;;;;91.13;49.77;;;-0.50;79.20;;;;;;5018601;28;87704;-75
2020/12/02 04:48:54;;;;;;;91.20;48.40;;;-0.40;79.50;;;;;;5017713;28;87187;-76
2020/12/02 04:51:25;;;;;;;104.07;52.67;;;-0.50;79.50;;;;;;4985363;28;86256;-75
2020/12/02 04:53:54;;;;;;;94.13;49.87;;;-0.60;79.90;;;;;;5000965;28;86672;-76
2020/12/02 04:56:21;;;;;;;91.90;50.77;;;-0.70;80.40;;;;;;5001593;28;87438;-76
2020/12/02 04:58:49;;;;;;;100.70;52.80;;;-0.80;81.10;;;;;;5001120;28;84036;-75
2020/12/02 05:01:30;;;;;;;92.90;50.87;;;-0.90;81.00;;;;;;4996274;28;87218;-75
2020/12/02 05:04:27;;;;;;;96.57;52.07;;;-0.90;81.70;;;;;;4981146;28;86787;-76
2020/12/02 05:07:05;;;;;;;96.80;52.13;;;-0.90;81.70;;;;;;4996529;28;85502;-76
2020/12/02 05:09:33;;;;;;;96.40;48.80;;;-0.90;81.60;;;;;;4982957;28;83764;-75
2020/12/02 05:12:02;;;;;;;96.90;52.27;;;-1.00;81.60;;;;;;4980551;28;87470;-76
2020/12/02 05:14:36;;;;;;;106.80;54.83;;;-1.00;81.80;;;;;;4982183;28;83775;-75
2020/12/02 05:17:17;;;;;;;98.23;53.17;;;-1.00;81.80;;;;;;4964457;28;86994;-75
2020/12/02 05:20:07;;;;;;;97.90;51.00;;;-1.00;81.60;;;;;;4981855;28;83734;-75
2020/12/02 05:22:36;;;;;;;92.10;49.63;;;-1.00;81.50;;;;;;4980822;28;87528;-75
2020/12/02 05:25:03;;;;;;;96.90;51.93;;;-1.10;81.50;;;;;;4980742;28;86856;-75
2020/12/02 05:27:33;;;;;;;103.60;55.03;;;-1.00;81.90;;;;;;4981014;28;88574;-75
2020/12/02 05:30:29;;;;;;;105.07;55.67;;;-1.00;81.50;;;;;;4979848;28;87589;-75
2020/12/02 05:33:10;;;;;;;113.70;55.37;;;-1.00;81.80;;;;;;4980723;28;87454;-75
2020/12/02 05:35:46;;;;;;;111.17;55.67;;;-1.00;81.20;;;;;;4981763;28;83840;-76
2020/12/02 05:38:25;;;;;;;121.40;60.00;;;-1.00;81.00;;;;;;4983281;28;84814;-76
2020/12/02 05:40:52;;;;;;;125.03;57.63;;;-0.90;80.50;;;;;;4980949;28;84722;-75
2020/12/02 05:43:22;;;;;;;116.93;55.90;;;-0.90;80.20;;;;;;4965251;28;87381;-75
2020/12/02 05:45:51;;;;;;;123.77;59.97;;;-0.90;80.00;;;;;;4980970;28;83427;-75
2020/12/02 05:48:25;;;;;;;127.80;61.53;;;-0.80;79.50;;;;;;4981520;28;88046;-76
2020/12/02 05:50:56;;;;;;;127.57;62.47;;;-0.80;78.90;;;;;;4982585;28;83602;-75
2020/12/02 05:53:39;;;;;;;129.37;62.93;;;-0.90;79.40;;;;;;4981229;28;87204;-75
2020/12/02 05:56:08;;;;;;;134.27;64.37;;;-0.90;79.00;;;;;;4980611;28;87500;-76
2020/12/02 05:58:34;;;;;;;118.10;57.83;;;-0.90;79.50;;;;;;4981002;28;88518;-75
2020/12/02 06:01:00;;;;;;;117.97;61.10;;;-1.00;80.30;;;;;;4982276;28;84551;-75
2020/12/02 06:03:34;;;;;;;118.23;58.57;;;-1.10;80.70;;;;;;4980985;28;87053;-76
2020/12/02 06:06:11;;;;;;;108.63;55.20;;;-1.10;80.70;;;;;;4994231;28;86992;-76
2020/12/02 06:08:40;;;;;;;107.80;55.03;;;-1.20;81.00;;;;;;5000673;28;85051;-76
2020/12/02 06:11:15;;;;;;;116.50;57.17;;;-1.30;81.80;;;;;;5001615;28;84714;-75
2020/12/02 06:13:49;;;;;;;127.83;59.93;;;-1.30;81.90;;;;;;4984250;28;87107;-75
2020/12/02 06:16:35;;;;;;;106.70;52.97;;;-1.20;81.60;;;;;;4999171;28;86256;-75
2020/12/02 06:19:26;;;;;;;104.23;56.77;;;-1.20;81.90;;;;;;5012254;28;84498;-75
2020/12/02 06:21:54;;;;;;;111.13;56.47;;;-1.20;81.50;;;;;;4968627;28;84047;-76
2020/12/02 06:24:49;;;;;;;106.43;54.60;;;-1.20;81.20;;;;;;4990245;28;86363;-75
2020/12/02 06:27:14;;;;;;;115.13;57.00;;;-1.20;81.00;;;;;;5017501;28;83146;-76
2020/12/02 06:29:46;;;;;;;109.40;55.13;;;-1.10;80.80;;;;;;4984103;28;87869;-75
2020/12/02 06:32:18;;;;;;;125.10;58.20;;;-1.00;80.30;;;;;;5001455;28;84045;-75
2020/12/02 06:34:44;;;;;;;120.07;58.17;;;-0.90;79.80;;;;;;5002161;28;84677;-76
2020/12/02 06:37:24;;;;;;;107.70;56.47;;;-1.00;79.50;;;;;;5016836;28;87270;-76
2020/12/02 06:39:59;;;;;;;108.50;55.43;;;-1.00;80.00;;;;;;4985176;28;87372;-76
2020/12/02 06:42:36;;;;;;;115.33;61.20;;;-1.10;80.40;;;;;;5018940;28;85875;-75
2020/12/02 06:45:24;;;;;;;120.10;61.10;;;-1.10;80.60;;;;;;4999479;28;85803;-76
2020/12/02 06:47:50;;;;;;;123.17;58.17;;;-1.00;80.80;;;;;;4989010;28;86619;-76
2020/12/02 06:50:19;;;;;;;119.80;61.53;;;-1.10;80.80;;;;;;5005869;28;84644;-75
2020/12/02 06:52:45;;;;;;;118.30;60.77;;;-1.00;80.80;;;;;;5014416;28;84339;-75
2020/12/02 06:55:13;;;;;;;114.77;59.93;;;-1.10;81.00;;;;;;5004041;28;87209;-76
2020/12/02 06:57:39;;;;;;;115.83;63.63;;;-1.00;80.80;;;;;;5004334;28;87113;-75
2020/12/02 07:00:12;;;;;;;117.53;62.70;;;-1.10;80.80;;;;;;5005350;28;86558;-76
2020/12/02 07:02:57;;;;;;;115.13;59.30;;;-1.00;80.80;;;;;;5014102;28;88018;-76
2020/12/02 07:05:41;;;;;;;121.43;60.60;;;-1.10;80.80;;;;;;5005307;28;87410;-75
2020/12/02 07:08:13;;;;;;;117.97;61.20;;;-1.10;81.00;;;;;;5004368;28;85666;-75
2020/12/02 07:10:40;;;;;;;131.67;63.83;;;-1.10;81.00;;;;;;4990871;28;85160;-76
2020/12/02 07:13:14;;;;;;;130.47;64.10;;;-1.10;82.00;;;;;;5006521;28;83345;-76
2020/12/02 07:15:39;;;;;;;139.97;66.10;;;-1.00;81.20;;;;;;5011902;28;83327;-76
2020/12/02 07:18:14;;;;;;;128.03;63.17;;;-1.00;81.30;;;;;;5003395;28;86142;-76
2020/12/02 07:20:53;;;;;;;130.17;67.20;;;-1.00;80.90;;;;;;4975000;28;87095;-75
2020/12/02 07:23:21;;;;;;;134.63;64.90;;;-0.90;80.50;;;;;;5001232;28;87524;-75
2020/12/02 07:25:47;;;;;;;134.43;68.20;;;-0.80;80.30;;;;;;5005404;28;84129;-75
2020/12/02 07:28:20;;;;;;;135.37;68.23;;;-0.70;79.60;;;;;;5009471;28;83153;-76
2020/12/02 07:30:46;;;;;;;122.10;64.37;;;-0.60;78.90;;;;;;5010452;28;85089;-78
2020/12/02 07:33:19;;;;;;;127.77;68.73;;;-0.60;78.40;;;;;;5019826;28;87429;-75
2020/12/02 07:36:01;;;;;;;142.77;68.60;;;-0.50;78.90;;;;;;5018337;28;87316;-75
2020/12/02 07:38:27;;;;;;;119.97;61.88;;;-0.30;78.20;;;;;;5020307;28;87150;-75
2020/12/02 07:40:53;;;;;;;140.37;65.80;;;-0.10;77.30;;;;;;5002543;28;87855;-76
2020/12/02 07:43:29;;;;;;;130.73;66.57;;;0.20;76.10;;;;;;4984102;28;84475;-75
2020/12/02 07:45:58;;;;;;;132.50;65.63;;;0.30;75.20;;;;;;4981935;28;87465;-75
2020/12/02 07:48:27;;;;;;;121.00;62.90;;;0.40;74.60;;;;;;4983222;28;83504;-75
2020/12/02 07:51:05;;;;;;;138.83;66.70;;;0.60;74.40;;;;;;4965660;28;87426;-75
2020/12/02 07:53:40;;;;;;;129.20;63.50;;;0.80;72.70;;;;;;4982582;28;83519;-75
2020/12/02 07:56:21;;;;;;;131.93;65.17;;;1.10;73.50;;;;;;5017755;28;84444;-75
2020/12/02 07:58:49;;;;;;;120.23;65.77;;;1.40;71.60;;;;;;5006416;28;86479;-76
2020/12/02 08:01:42;;;;;;;132.73;66.07;;;1.60;71.20;;;;;;5006066;28;84287;-75
2020/12/02 08:04:20;;;;;;;121.60;63.77;;;1.70;69.80;;;;;;5021788;28;87003;-76
2020/12/02 08:06:54;;;;;;;126.30;63.97;;;1.80;70.00;;;;;;5024303;28;84075;-75
2020/12/02 08:09:20;;;;;;;122.47;65.10;;;2.00;69.80;;;;;;5018349;28;83200;-76
2020/12/02 08:11:51;;;;;;;133.73;64.60;;;2.20;69.20;;;;;;5004834;28;84442;-71
2020/12/02 08:14:25;;;;;;;137.00;69.30;;;2.30;68.40;;;;;;5012480;28;87799;-71
2020/12/02 08:16:53;;;;;;;138.80;68.17;;;2.50;67.60;;;;;;5006252;28;87485;-73
2020/12/02 08:19:36;;;;;;;136.43;68.17;;;2.60;67.10;;;;;;5010535;28;86977;-71
2020/12/02 08:22:02;;;;;;;;;;;2.60;66.80;;;;;;4965539;28;87683;-72
2020/12/02 08:24:41;;;;;;;134.43;68.17;;;2.70;66.50;;;;;;4967968;28;87040;-70
2020/12/02 08:27:12;;;;;;;130.63;64.30;;;2.60;66.80;;;;;;5003131;28;83509;-73
2020/12/02 08:29:46;;;;;;;134.18;67.40;;;2.50;67.20;;;;;;4997756;28;86526;-72
2020/12/02 08:32:25;;;;;;;124.00;66.10;;;2.50;67.70;;;;;;4982121;28;87843;-72
2020/12/02 08:34:51;;;;;;;129.13;67.83;;;2.60;67.20;;;;;;5000938;28;83397;-76
2020/12/02 08:37:20;;;;;;;122.90;69.03;;;2.60;67.60;;;;;;5007483;28;87228;-75
2020/12/02 08:39:49;;;;;;;120.80;63.63;;;2.70;67.40;;;;;;5013097;28;86287;-75
2020/12/02 08:42:32;;;;;;;125.47;64.60;;;2.70;67.80;;;;;;5021198;28;88358;-75
2020/12/02 08:45:16;;;;;;;133.40;68.03;;;2.80;67.30;;;;;;5016634;28;86989;-75
2020/12/02 08:47:42;;;;;;;128.23;68.70;;;2.80;67.60;;;;;;5006680;28;83557;-74
2020/12/02 08:50:22;;;;;;;121.87;66.30;;;3.10;67.20;;;;;;5011685;28;86900;-75
2020/12/02 08:52:53;;;;;;;136.00;73.60;;;3.00;67.00;;;;;;5009904;28;88158;-75
2020/12/02 08:55:20;;;;;;;136.27;70.03;;;3.20;66.60;;;;;;5010904;28;87686;-75
2020/12/02 08:57:46;;;;;;;140.10;73.17;;;3.20;67.20;;;;;;5006862;28;86553;-75
2020/12/02 09:00:18;;;;;;;120.77;68.23;;;3.20;66.60;;;;;;4993292;28;86840;-74
2020/12/02 09:02:44;;;;;;;123.25;66.25;;;3.30;67.20;;;;;;5008881;28;87642;-74
2020/12/02 09:05:11;;;;;;;122.30;66.57;;;3.50;66.20;;;;;;5019999;28;84243;-75
2020/12/02 09:07:37;;;;;;;119.53;63.23;;;3.60;66.10;;;;;;5008779;28;87055;-75
2020/12/02 09:10:04;;;;;;;116.47;65.17;;;3.50;65.70;;;;;;5000263;28;83627;-74
2020/12/02 09:12:30;;;;;;;124.63;67.00;;;3.40;66.10;;;;;;5014410;28;88191;-76
2020/12/02 09:14:56;;;;;;;114.10;62.73;;;3.40;66.70;;;;;;5022383;28;87161;-76
2020/12/02 09:17:22;;;;;;;122.20;67.57;;;3.50;67.20;;;;;;5015414;28;87422;-76
2020/12/02 09:19:50;;;;;;;121.00;65.47;;;3.60;67.10;;;;;;4999054;28;84213;-76
2020/12/02 09:22:17;;;;;;;124.47;67.37;;;3.80;66.30;;;;;;5001314;28;88505;-76
2020/12/02 09:24:44;;;;;;;112.80;64.70;;;4.00;65.70;;;;;;4982695;28;86352;-76
2020/12/02 09:27:11;;;;;;;115.67;62.80;;;4.20;65.30;;;;;;5019589;28;84100;-76
2020/12/02 09:29:38;;;;;;;112.93;62.40;;;4.10;64.00;;;;;;5000478;28;86115;-75
2020/12/02 09:32:04;;;;;;;111.97;61.47;;;3.90;64.80;;;;;;4999686;28;86984;-75
2020/12/02 09:34:30;;;;;;;108.37;61.07;;;3.90;64.70;;;;;;5001108;28;86931;-75
2020/12/02 09:36:57;;;;;;;111.87;63.80;;;4.00;65.50;;;;;;5000430;28;83857;-76
2020/12/02 09:39:23;;;;;;;109.70;60.87;;;4.20;64.50;;;;;;4981955;28;87168;-75
2020/12/02 09:41:51;;;;;;;109.53;59.40;;;4.10;63.90;;;;;;5003886;28;84567;-75
2020/12/02 09:44:21;;;;;;;98.93;57.23;;;3.90;64.50;;;;;;5011038;28;85182;-75
2020/12/02 09:46:55;;;;;;;102.70;59.77;;;3.80;65.20;;;;;;5008848;28;83740;-77
2020/12/02 09:49:22;;;;;;;111.73;57.50;;;3.70;65.10;;;;;;5009864;28;86606;-76
2020/12/02 09:52:03;;;;;;;106.13;58.10;;;3.70;65.30;;;;;;5012026;28;86564;-79
2020/12/02 09:54:39;;;;;;;111.82;59.00;;;3.50;65.50;;;;;;5009505;28;86352;-76
2020/12/02 09:57:12;;;;;;;99.00;54.60;;;3.40;65.90;;;;;;5026176;28;83371;-78
2020/12/02 09:59:38;;;;;;;96.73;54.33;;;3.50;66.60;;;;;;5009440;28;85513;-77
2020/12/02 10:02:29;;;;;;;100.03;55.37;;;3.70;66.10;;;;;;5008790;28;88135;-76
2020/12/02 10:05:38;;;;;;;99.30;50.57;;;3.80;64.90;;;;;;5010099;28;84279;-77
2020/12/02 10:08:23;;;;;;;88.87;51.10;;;4.00;63.20;;;;;;5010513;28;85092;-76
2020/12/02 10:11:02;;;;;;;105.17;55.90;;;3.90;64.40;;;;;;5002740;28;87041;-77
2020/12/02 10:13:34;;;;;;;101.07;54.77;;;3.80;64.00;;;;;;4998888;28;84834;-77
2020/12/02 10:16:03;;;;;;;95.88;54.28;;;3.70;65.00;;;;;;4999771;28;86326;-77
2020/12/02 10:18:54;;;;;;;94.10;53.60;;;3.80;65.20;;;;;;5006284;28;87066;-77
2020/12/02 10:21:23;;;;;;;100.50;53.50;;;3.90;65.10;;;;;;5011985;28;87059;-77
2020/12/02 10:24:19;;;;;;;96.33;49.43;;;3.90;65.20;;;;;;5016211;28;84264;-77
2020/12/02 10:27:20;;;;;;;79.77;47.07;;;4.10;64.50;;;;;;4993664;28;87016;-76
2020/12/02 10:30:20;;;;;;;92.27;49.87;;;3.80;63.20;;;;;;4974474;28;87394;-77
2020/12/02 10:32:54;;;;;;;86.57;48.23;;;3.60;64.90;;;;;;4997242;28;85942;-76
2020/12/02 10:35:21;;;;;;;98.23;52.80;;;3.50;65.90;;;;;;5016986;28;85089;-77
2020/12/02 10:37:47;;;;;;;98.20;53.33;;;3.60;66.20;;;;;;5005924;28;83800;-78
2020/12/02 10:40:15;;;;;;;99.13;51.33;;;3.60;65.90;;;;;;5006532;28;87526;-77
2020/12/02 10:43:09;;;;;;;101.63;53.30;;;3.70;66.30;;;;;;4989569;28;85340;-77
2020/12/02 10:45:35;;;;;;;86.63;49.97;;;3.80;66.30;;;;;;5008906;28;87807;-77
2020/12/02 10:48:33;;;;;;;97.03;53.20;;;3.70;65.20;;;;;;5004447;28;86026;-77
2020/12/02 10:51:00;;;;;;;99.30;52.63;;;3.40;66.50;;;;;;5000215;28;87778;-77
2020/12/02 10:53:26;;;;;;;87.37;50.00;;;3.20;67.30;;;;;;4968584;28;87084;-77
2020/12/02 10:55:53;;;;;;;93.13;51.93;;;3.20;68.20;;;;;;4976102;28;87786;-77
2020/12/02 10:58:29;;;;;;;80.77;43.83;;;3.30;68.00;;;;;;5000923;28;84534;-75
2020/12/02 11:00:59;;;;;;;91.87;49.43;;;3.00;67.30;;;;;;4992355;28;86401;-77
2020/12/02 11:03:32;;;;;;;87.80;50.10;;;3.10;67.60;;;;;;5001742;28;86851;-77
2020/12/02 11:06:19;;;;;;;83.63;44.20;;;3.00;68.20;;;;;;5007755;28;84558;-77
2020/12/02 11:09:13;;;;;;;72.17;40.60;;;3.00;68.80;;;;;;5027844;28;87749;-77
2020/12/02 11:11:49;;;;;;;80.33;44.13;;;2.80;67.90;;;;;;5007264;28;87070;-77
2020/12/02 11:14:31;;;;;;;77.00;43.40;;;2.60;68.90;;;;;;5008703;28;87421;-77
2020/12/02 11:17:34;;;;;;;78.87;42.83;;;2.30;70.40;;;;;;5004402;28;88041;-76
2020/12/02 11:20:16;;;;;;;90.50;49.23;;;2.20;71.20;;;;;;4988244;28;86813;-77
2020/12/02 11:22:59;;;;;;;85.25;48.03;;;2.10;71.90;;;;;;5005859;28;87449;-77
2020/12/02 11:25:49;;;;;;;78.90;44.80;;;2.10;72.70;;;;;;5005107;28;83461;-77
2020/12/02 11:28:16;;;;;;;102.30;57.77;;;2.30;72.50;;;;;;5010785;28;86724;-76
2020/12/02 11:30:44;;;;;;;79.37;46.87;;;2.30;72.50;;;;;;5011265;28;85603;-76
2020/12/02 11:33:31;;;;;;;80.73;44.87;;;2.20;71.50;;;;;;5009679;28;87460;-77
2020/12/02 11:36:16;;;;;;;80.80;45.40;;;2.20;71.70;;;;;;5010154;28;84142;-77
2020/12/02 11:39:14;;;;;;;93.60;52.37;;;2.20;72.20;;;;;;5008038;28;85006;-77
2020/12/02 11:42:09;;;;;;;87.37;47.03;;;2.30;72.20;;;;;;4976714;28;86365;-77
2020/12/02 11:45:13;;;;;;;81.30;48.20;;;2.30;71.70;;;;;;5012990;28;87310;-76
2020/12/02 11:47:41;;;;;;;78.10;44.07;;;2.40;71.90;;;;;;4974816;28;85705;-76
2020/12/02 11:50:14;;;;;;;79.00;42.77;;;2.40;71.50;;;;;;4993851;28;84277;-76
2020/12/02 11:52:50;;;;;;;76.47;42.97;;;2.20;71.90;;;;;;4999447;28;87499;-76
2020/12/02 11:55:18;;;;;;;78.83;44.90;;;2.20;72.70;;;;;;5010640;28;87700;-77
2020/12/02 11:57:51;;;;;;;82.93;46.57;;;2.10;73.40;;;;;;4991351;28;86886;-76
2020/12/02 12:00:19;;;;;;;84.00;45.63;;;2.20;73.70;;;;;;4992825;28;88131;-77
2020/12/02 12:03:04;;;;;;;88.50;45.97;;;2.30;73.40;;;;;;4990258;28;88625;-75
2020/12/02 12:05:54;;;;;;;83.97;44.40;;;2.20;73.60;;;;;;4991676;28;87815;-76
2020/12/02 12:08:32;;;;;;;78.17;47.07;;;2.10;74.20;;;;;;4992522;28;87125;-76
2020/12/02 12:11:12;;;;;;;83.23;47.30;;;2.20;74.30;;;;;;5009854;28;87993;-76
2020/12/02 12:13:57;;;;;;;77.43;44.47;;;2.30;73.50;;;;;;5004902;28;92956;-76
2020/12/02 12:16:35;;;;;;;79.13;44.17;;;2.10;74.10;;;;;;5022840;28;91212;-76
2020/12/02 12:19:41;;;;;;;78.17;45.70;;;2.10;74.40;;;;;;5028276;28;87027;-76
2020/12/02 12:22:19;;;;;;;78.23;44.07;;;2.10;74.60;;;;;;5013021;28;87229;-76
2020/12/02 12:24:48;;;;;;;83.57;46.37;;;2.20;74.50;;;;;;5006482;28;91716;-76
2020/12/02 12:27:20;;;;;;;81.53;46.43;;;2.30;74.50;;;;;;4985878;28;91148;-76
2020/12/02 12:29:46;;;;;;;80.10;43.25;;;2.20;74.40;;;;;;4998004;28;87371;-76
2020/12/02 12:32:39;;;;;;;74.97;43.13;;;2.10;74.70;;;;;;4995465;28;86694;-76
2020/12/02 12:35:12;;;;;;;81.03;44.77;;;2.10;74.60;;;;;;5008907;28;87443;-76
2020/12/02 12:37:41;;;;;;;72.20;43.33;;;2.20;74.50;;;;;;4984044;28;91349;-76
2020/12/02 12:40:21;;;;;;;79.53;45.40;;;2.10;74.70;;;;;;4999292;28;87917;-75
2020/12/02 12:42:53;;;;;;;72.20;41.70;;;2.00;75.10;;;;;;5000337;28;87459;-76
2020/12/02 12:45:25;;;;;;;71.88;41.22;;;2.10;74.80;;;;;;5008578;28;91715;-79
2020/12/02 12:47:56;;;;;;;73.93;42.58;;;1.90;74.60;;;;;;4998189;28;89597;-77
2020/12/02 12:50:22;;;;;;;77.50;41.40;;;2.00;75.10;;;;;;4966250;28;87363;-77
2020/12/02 12:52:51;;;;;;;72.83;41.00;;;2.10;74.80;;;;;;4990620;28;87397;-77
2020/12/02 12:55:17;;;;;;;74.83;40.50;;;2.10;74.10;;;;;;5028692;28;89801;-74
2020/12/02 12:57:48;;;;;;;72.33;40.97;;;2.20;74.20;;;;;;5001471;28;88448;-78